Weather at Webster Heliport

Public forecast

Using degrees Fahrenheit for public forecast. Weather courtesy of forecast.io.

Closest aviation weather report (METAR) to Webster Heliport

Closest report is Marshall County Airport, 21.1 nm (39.1 km) ESE. Retrieved 2021/08/02 11:35 UTC (22 minutes ago):

KC75 021135Z AUTO 00000KT 5SM SCT001 12/12 A3018 RMK AO2 T01220118 PWINO

Closest aviation forecast (TAF) to Webster Heliport

Closest forecast is General Wayne A. Downing Peoria International Airport, 27.3 nm (50.6 km) SSE. Retrieved 2021/08/02 06:22 UTC (6 hours ago):

TAF KPIA 020520Z 0206/0306 06004KT P6SM SCT045